Time;durP1;ratioP1;P1;durP2;ratioP2;P2;SDS_P1;SDS_P2;PMS_P1;PMS_P2;Temp;Humidity;BMP_temperature;BMP_pressure;BME280_temperature;BME280_humidity;BME280_pressure;Samples;Min_cycle;Max_cycle;Signal;HPM_P1;HPM_P2
2021/06/08 00:01:24;;;;;;;3.80;3.60;;;25.40;76.90;;;;;;5117100;28;20844;-92
2021/06/08 00:03:50;;;;;;;3.07;2.97;;;25.40;76.90;;;;;;5116542;28;20441;-92
2021/06/08 00:06:16;;;;;;;2.70;2.53;;;25.50;77.00;;;;;;5117040;28;20445;-92
2021/06/08 00:08:43;;;;;;;3.13;2.80;;;25.40;76.90;;;;;;5116573;28;20432;-92
2021/06/08 00:11:09;;;;;;;2.87;2.67;;;25.40;76.90;;;;;;5116528;28;20442;-92
2021/06/08 00:13:35;;;;;;;3.47;3.27;;;25.50;76.90;;;;;;5116540;28;20442;-92
2021/06/08 00:16:02;;;;;;;2.90;2.70;;;25.50;76.90;;;;;;5134417;28;20505;-91
2021/06/08 00:18:30;;;;;;;3.20;3.00;;;25.40;76.80;;;;;;5141058;28;20487;-91
2021/06/08 00:20:57;;;;;;;3.30;3.10;;;25.40;76.80;;;;;;5140994;28;20453;-91
2021/06/08 00:23:23;;;;;;;3.13;2.93;;;25.40;76.80;;;;;;5130267;28;20533;-92
2021/06/08 00:25:49;;;;;;;2.97;2.77;;;25.50;77.00;;;;;;5120745;28;20769;-92
2021/06/08 00:28:16;;;;;;;3.53;3.33;;;25.40;76.80;;;;;;5119806;28;20432;-92
2021/06/08 00:30:42;;;;;;;2.87;2.67;;;25.50;76.90;;;;;;5117602;28;20443;-92
2021/06/08 00:33:08;;;;;;;2.70;2.60;;;25.50;76.90;;;;;;5116682;28;20429;-92
2021/06/08 00:35:36;;;;;;;3.03;2.83;;;25.40;76.90;;;;;;5116580;28;20526;-93
2021/06/08 00:38:03;;;;;;;3.20;3.00;;;25.50;76.90;;;;;;5116038;28;20466;-92
2021/06/08 00:40:29;;;;;;;2.80;2.60;;;25.40;76.80;;;;;;5116120;28;20431;-92
2021/06/08 00:42:56;;;;;;;2.90;2.70;;;25.40;76.80;;;;;;5115964;28;20436;-92
2021/06/08 00:45:23;;;;;;;3.03;2.73;;;25.40;76.80;;;;;;5115951;28;20440;-91
2021/06/08 00:47:50;;;;;;;3.37;3.17;;;25.40;76.80;;;;;;5115866;28;21014;-93
2021/06/08 00:50:17;;;;;;;3.30;3.10;;;25.40;76.80;;;;;;5115456;28;20434;-92
2021/06/08 00:52:45;;;;;;;2.70;2.50;;;25.40;76.80;;;;;;5115701;28;20520;-91
2021/06/08 00:55:13;;;;;;;3.20;3.00;;;25.40;76.80;;;;;;5115587;28;20479;-92
2021/06/08 00:57:39;;;;;;;2.60;2.40;;;25.40;76.80;;;;;;5097327;28;20447;-92
2021/06/08 01:00:09;;;;;;;2.60;2.50;;;25.40;76.80;;;;;;5115109;28;20455;-92
2021/06/08 01:02:36;;;;;;;2.47;2.37;;;25.40;76.80;;;;;;5115484;28;20441;-92
2021/06/08 01:05:03;;;;;;;2.90;2.70;;;25.40;76.70;;;;;;5115226;28;20444;-92
2021/06/08 01:07:32;;;;;;;2.93;2.73;;;25.40;76.70;;;;;;5115039;28;20441;-92
2021/06/08 01:09:59;;;;;;;2.60;2.40;;;25.40;76.70;;;;;;5115486;28;20526;-93
2021/06/08 01:12:26;;;;;;;2.90;2.70;;;25.40;76.70;;;;;;5115278;28;20432;-92
2021/06/08 01:14:56;;;;;;;2.60;2.50;;;25.40;76.70;;;;;;5115551;28;20480;-92
2021/06/08 01:17:22;;;;;;;3.03;2.83;;;25.40;76.60;;;;;;5115533;28;20441;-92
2021/06/08 01:19:53;;;;;;;2.93;2.73;;;25.40;76.70;;;;;;5115178;28;20453;-92
2021/06/08 01:22:22;;;;;;;2.30;2.20;;;25.40;76.60;;;;;;5115172;28;20461;-92
2021/06/08 01:24:49;;;;;;;2.30;2.10;;;25.40;76.60;;;;;;5114966;28;20439;-92
2021/06/08 01:27:18;;;;;;;2.40;2.20;;;25.40;76.60;;;;;;5115012;28;20441;-92
2021/06/08 01:29:47;;;;;;;2.90;2.70;;;25.40;76.60;;;;;;5115174;28;20448;-92
2021/06/08 01:32:17;;;;;;;2.60;2.50;;;25.40;76.60;;;;;;5115291;28;20438;-93
2021/06/08 01:34:45;;;;;;;2.60;2.40;;;25.40;76.60;;;;;;5114799;28;20563;-92
2021/06/08 01:37:11;;;;;;;2.43;2.33;;;25.30;76.50;;;;;;5114491;28;20477;-92
2021/06/08 01:39:39;;;;;;;2.50;2.40;;;25.30;76.50;;;;;;5114802;28;20436;-92
2021/06/08 01:42:06;;;;;;;2.70;2.60;;;25.30;76.50;;;;;;5115208;28;20457;-92
2021/06/08 01:44:33;;;;;;;2.83;2.63;;;25.30;76.50;;;;;;5114845;28;20444;-92
2021/06/08 01:46:59;;;;;;;2.50;2.30;;;25.30;76.40;;;;;;5115036;28;20799;-92
2021/06/08 01:49:25;;;;;;;2.93;2.73;;;25.40;76.50;;;;;;5114860;28;20426;-93
2021/06/08 01:52:03;;;;;;;2.63;2.43;;;25.40;76.50;;;;;;5114460;28;20467;-92
2021/06/08 01:54:36;;;;;;;2.40;2.30;;;25.30;76.40;;;;;;5114639;28;20484;-92
2021/06/08 01:57:11;;;;;;;2.57;2.47;;;25.30;76.40;;;;;;5114370;28;20443;-93
2021/06/08 01:59:50;;;;;;;2.97;2.77;;;25.30;76.40;;;;;;5114492;28;20433;-92
2021/06/08 02:02:25;;;;;;;2.57;2.47;;;25.30;76.30;;;;;;5113937;28;20496;-92
2021/06/08 02:05:03;;;;;;;2.13;1.93;;;25.40;76.40;;;;;;5114805;28;20491;-92
2021/06/08 02:07:41;;;;;;;3.13;2.83;;;25.30;76.30;;;;;;5114477;28;20486;-93
2021/06/08 02:10:23;;;;;;;2.53;2.40;;;25.40;76.40;;;;;;5114309;28;20441;-92
2021/06/08 02:12:58;;;;;;;2.67;2.57;;;25.30;76.30;;;;;;5114263;28;20498;-92
2021/06/08 02:15:31;;;;;;;2.63;2.53;;;25.30;76.30;;;;;;5114397;28;20492;-92
2021/06/08 02:17:58;;;;;;;2.83;2.73;;;25.30;76.30;;;;;;5114348;28;20439;-92
2021/06/08 02:20:28;;;;;;;2.93;2.80;;;25.30;76.30;;;;;;5114041;28;20983;-93
2021/06/08 02:22:58;;;;;;;2.30;2.20;;;25.30;76.30;;;;;;5114468;28;20819;-92
2021/06/08 02:25:27;;;;;;;2.20;2.10;;;25.30;76.30;;;;;;5114094;28;20527;-92
2021/06/08 02:27:58;;;;;;;2.53;2.43;;;25.30;76.20;;;;;;5114572;28;20443;-92
2021/06/08 02:30:25;;;;;;;2.00;1.90;;;25.30;76.20;;;;;;5114415;28;20452;-92
2021/06/08 02:32:53;;;;;;;2.53;2.43;;;25.30;76.20;;;;;;5114417;28;20447;-91
2021/06/08 02:35:22;;;;;;;2.90;2.70;;;25.30;76.30;;;;;;5114266;28;20477;-92
2021/06/08 02:37:49;;;;;;;2.17;2.07;;;25.30;76.20;;;;;;5113825;28;20797;-92
2021/06/08 02:40:17;;;;;;;2.70;2.60;;;25.30;76.20;;;;;;5114507;28;20442;-92
2021/06/08 02:42:44;;;;;;;2.60;2.40;;;25.30;76.30;;;;;;5113999;28;20436;-92
2021/06/08 02:45:12;;;;;;;2.23;2.13;;;25.30;76.30;;;;;;5114622;28;20912;-92
2021/06/08 02:47:39;;;;;;;2.57;2.43;;;25.30;76.20;;;;;;5114049;28;20497;-92
2021/06/08 02:50:08;;;;;;;2.20;2.10;;;25.30;76.30;;;;;;5114025;28;20446;-92
2021/06/08 02:52:35;;;;;;;2.90;2.70;;;25.30;76.20;;;;;;5114052;28;20468;-92
2021/06/08 02:55:05;;;;;;;2.23;2.13;;;25.20;76.10;;;;;;5114403;28;20529;-92
2021/06/08 02:57:33;;;;;;;2.37;2.27;;;25.30;76.20;;;;;;5114042;28;20944;-93
2021/06/08 03:00:02;;;;;;;3.03;2.83;;;25.40;76.20;;;;;;5113841;28;20451;-92
2021/06/08 03:02:32;;;;;;;2.17;2.07;;;25.20;76.10;;;;;;5113978;28;20440;-93
2021/06/08 03:05:02;;;;;;;2.60;2.50;;;25.30;76.20;;;;;;5114674;28;20445;-92
2021/06/08 03:07:28;;;;;;;2.67;2.57;;;25.20;76.10;;;;;;5114231;28;20452;-93
2021/06/08 03:09:58;;;;;;;2.50;2.40;;;25.20;76.10;;;;;;5114182;28;20441;-92
2021/06/08 03:12:29;;;;;;;2.60;2.50;;;25.20;76.10;;;;;;5113916;28;20426;-91
2021/06/08 03:14:56;;;;;;;2.67;2.53;;;25.20;76.10;;;;;;5115289;28;20995;-93
2021/06/08 03:17:25;;;;;;;2.33;2.23;;;25.20;76.10;;;;;;5117485;28;20480;-92
2021/06/08 03:19:56;;;;;;;2.60;2.50;;;25.20;76.10;;;;;;5117320;28;20449;-92
2021/06/08 03:22:26;;;;;;;2.60;2.40;;;25.20;76.10;;;;;;5116907;28;20479;-92
2021/06/08 03:24:58;;;;;;;4.33;2.83;;;25.20;76.10;;;;;;5117624;28;20491;-92
2021/06/08 03:27:26;;;;;;;2.60;2.50;;;25.20;76.10;;;;;;5117255;28;20444;-92
2021/06/08 03:29:53;;;;;;;2.43;2.33;;;25.20;76.20;;;;;;5117206;28;21011;-92
2021/06/08 03:32:20;;;;;;;2.43;2.33;;;25.20;76.10;;;;;;5117531;28;20441;-92
2021/06/08 03:34:47;;;;;;;2.50;2.37;;;25.20;76.10;;;;;;5117330;28;20811;-92
2021/06/08 03:37:16;;;;;;;2.97;2.83;;;25.20;76.10;;;;;;5117238;28;20544;-92
2021/06/08 03:39:43;;;;;;;2.63;2.53;;;25.20;76.10;;;;;;5117135;28;20439;-93
2021/06/08 03:42:11;;;;;;;2.53;2.43;;;25.20;76.10;;;;;;5117159;28;20444;-93
2021/06/08 03:44:37;;;;;;;2.97;2.77;;;25.20;76.10;;;;;;5117386;28;20448;-93
2021/06/08 03:47:05;;;;;;;3.00;2.80;;;25.20;76.10;;;;;;5116863;28;20440;-92
2021/06/08 03:49:33;;;;;;;2.60;2.50;;;25.20;76.10;;;;;;5116748;28;20472;-92
2021/06/08 03:51:59;;;;;;;2.33;2.23;;;25.20;76.20;;;;;;5116752;28;20461;-93
2021/06/08 03:54:27;;;;;;;2.90;2.80;;;25.20;76.20;;;;;;5116883;28;20476;-93
2021/06/08 03:56:54;;;;;;;2.87;2.67;;;25.20;76.20;;;;;;5116692;28;20492;-93
2021/06/08 03:59:23;;;;;;;2.60;2.50;;;25.20;76.20;;;;;;5116575;28;20467;-92
2021/06/08 04:01:50;;;;;;;2.40;2.30;;;25.20;76.20;;;;;;5116753;28;20539;-92
2021/06/08 04:04:17;;;;;;;2.97;2.80;;;25.20;77.00;;;;;;5116503;28;20939;-92
2021/06/08 04:06:46;;;;;;;2.70;2.60;;;25.20;76.20;;;;;;5116095;28;20465;-92
2021/06/08 04:09:13;;;;;;;2.63;2.53;;;25.20;76.20;;;;;;5116704;28;20431;-93
2021/06/08 04:11:42;;;;;;;2.57;2.47;;;25.20;76.30;;;;;;5116418;28;20446;-92
2021/06/08 04:14:10;;;;;;;2.10;2.00;;;25.20;76.20;;;;;;5116389;28;20942;-92
2021/06/08 04:16:37;;;;;;;2.30;2.20;;;25.20;76.30;;;;;;5116522;28;20788;-92
2021/06/08 04:19:08;;;;;;;3.07;2.87;;;25.20;76.30;;;;;;5116381;28;20486;-92
2021/06/08 04:21:34;;;;;;;3.30;3.10;;;25.20;76.30;;;;;;5115931;28;20470;-92
2021/06/08 04:24:03;;;;;;;2.43;2.33;;;25.20;76.20;;;;;;5116465;28;20528;-92
2021/06/08 04:26:29;;;;;;;2.57;2.47;;;25.30;76.40;;;;;;5115754;28;20441;-93
2021/06/08 04:28:58;;;;;;;2.70;2.50;;;25.20;76.30;;;;;;5116352;28;20913;-93
2021/06/08 04:31:26;;;;;;;2.70;2.60;;;25.20;76.30;;;;;;5116184;28;20449;-92
2021/06/08 04:33:52;;;;;;;3.27;3.07;;;25.20;76.30;;;;;;5115908;28;20442;-92
2021/06/08 04:36:19;;;;;;;2.33;2.23;;;25.20;76.30;;;;;;5116056;28;20475;-93
2021/06/08 04:38:46;;;;;;;2.90;2.70;;;25.20;76.30;;;;;;5115878;28;20536;-93
2021/06/08 04:41:13;;;;;;;2.80;2.60;;;25.20;76.30;;;;;;5116037;28;20455;-93
2021/06/08 04:43:41;;;;;;;3.40;3.20;;;25.20;76.30;;;;;;5115927;28;20931;-93
2021/06/08 04:46:11;;;;;;;2.60;2.40;;;25.30;76.50;;;;;;5116085;28;20438;-92
2021/06/08 04:48:38;;;;;;;2.70;2.60;;;25.20;76.40;;;;;;5115900;28;20465;-92
2021/06/08 04:51:05;;;;;;;3.10;2.90;;;25.20;76.40;;;;;;5115305;28;21034;-92
2021/06/08 04:53:31;;;;;;;2.53;2.43;;;25.20;76.40;;;;;;5115697;28;20443;-92
2021/06/08 04:55:58;;;;;;;2.70;2.60;;;25.20;76.40;;;;;;5115428;28;20484;-93
2021/06/08 04:58:27;;;;;;;2.70;2.60;;;25.20;76.40;;;;;;5115551;28;20807;-92
2021/06/08 05:00:59;;;;;;;2.20;2.10;;;25.20;76.40;;;;;;5115557;28;20497;-92
2021/06/08 05:03:30;;;;;;;2.67;2.53;;;25.20;76.50;;;;;;5115509;28;20912;-92
2021/06/08 05:05:59;;;;;;;2.47;2.37;;;25.20;76.40;;;;;;5115768;28;20441;-92
2021/06/08 05:08:33;;;;;;;2.77;2.57;;;25.20;76.40;;;;;;5115273;28;20444;-93
2021/06/08 05:11:06;;;;;;;2.37;2.27;;;25.20;76.10;;;;;;5137130;28;20423;-88
2021/06/08 05:13:34;;;;;;;3.07;2.87;;;25.20;75.80;;;;;;5137774;28;20463;-88
2021/06/08 05:16:01;;;;;;;2.70;2.50;;;25.20;75.80;;;;;;5137969;28;20477;-84
2021/06/08 05:18:30;;;;;;;2.47;2.27;;;25.20;75.80;;;;;;5124610;28;20822;-91
2021/06/08 05:20:59;;;;;;;3.10;2.90;;;25.20;75.80;;;;;;5119555;28;20467;-92
2021/06/08 05:23:30;;;;;;;2.83;2.63;;;25.20;75.80;;;;;;5132192;28;20440;-92
2021/06/08 05:25:56;;;;;;;3.50;3.20;;;25.20;75.70;;;;;;5117566;28;20448;-91
2021/06/08 05:28:23;;;;;;;3.30;3.10;;;25.20;76.00;;;;;;5115845;28;20519;-92
2021/06/08 05:30:50;;;;;;;3.40;3.20;;;25.20;76.30;;;;;;5115663;28;20931;-92
2021/06/08 05:33:21;;;;;;;3.20;3.00;;;25.20;76.40;;;;;;5116849;28;20437;-92
2021/06/08 05:35:52;;;;;;;3.60;3.40;;;25.20;76.40;;;;;;5117002;28;20484;-92
2021/06/08 05:38:29;;;;;;;3.37;3.17;;;25.20;76.60;;;;;;5114772;28;20476;-90
2021/06/08 05:40:55;;;;;;;3.33;3.13;;;25.20;76.50;;;;;;5115130;28;20439;-91
2021/06/08 05:43:21;;;;;;;3.40;3.20;;;25.20;76.50;;;;;;5118332;28;20439;-92
2021/06/08 05:45:49;;;;;;;2.90;2.70;;;25.20;76.40;;;;;;5115656;28;20449;-91
2021/06/08 05:48:19;;;;;;;2.27;2.17;;;25.20;76.40;;;;;;5116648;28;20472;-91
2021/06/08 05:50:45;;;;;;;2.20;2.10;;;25.20;76.40;;;;;;5117300;28;20461;-91
2021/06/08 05:53:17;;;;;;;3.03;2.83;;;25.10;76.20;;;;;;5116174;28;20437;-92
2021/06/08 05:55:48;;;;;;;5.50;2.47;;;25.20;76.50;;;;;;5131361;28;20499;-91
2021/06/08 05:58:14;;;;;;;4.43;3.10;;;25.20;76.40;;;;;;5115541;28;20438;-92
2021/06/08 06:00:41;;;;;;;3.13;2.97;;;25.20;76.50;;;;;;5114783;28;20439;-91
2021/06/08 06:03:07;;;;;;;3.40;3.20;;;25.20;76.50;;;;;;5115141;28;20446;-92
2021/06/08 06:05:37;;;;;;;3.83;3.53;;;25.30;76.60;;;;;;5116532;28;20441;-92
2021/06/08 06:08:04;;;;;;;2.93;2.73;;;25.20;76.50;;;;;;5115188;28;20831;-92
2021/06/08 06:10:32;;;;;;;3.30;3.10;;;25.20;76.50;;;;;;5117425;28;20437;-92
2021/06/08 06:13:01;;;;;;;3.27;3.07;;;25.20;76.60;;;;;;5115663;28;20440;-90
2021/06/08 06:15:31;;;;;;;3.37;3.17;;;25.20;76.50;;;;;;5114254;28;20476;-92
2021/06/08 06:17:58;;;;;;;3.47;3.27;;;25.20;76.60;;;;;;5114369;28;20440;-92
2021/06/08 06:20:25;;;;;;;3.47;3.27;;;25.20;76.50;;;;;;5114016;28;20472;-92
2021/06/08 06:22:52;;;;;;;2.83;2.63;;;25.20;76.50;;;;;;5121138;28;20936;-93
2021/06/08 06:25:19;;;;;;;2.93;2.73;;;25.20;76.60;;;;;;5115388;28;20438;-92
2021/06/08 06:27:47;;;;;;;2.83;2.63;;;25.20;76.30;;;;;;5118661;28;20450;-90
2021/06/08 06:30:16;;;;;;;3.00;2.80;;;25.40;76.20;;;;;;5115308;28;20984;-93
2021/06/08 06:32:44;;;;;;;3.13;2.90;;;25.20;76.00;;;;;;5114484;28;20439;-93
2021/06/08 06:35:11;;;;;;;2.67;2.50;;;25.20;76.20;;;;;;5113956;28;20486;-92
2021/06/08 06:37:39;;;;;;;3.60;3.30;;;25.20;76.10;;;;;;5113793;28;20479;-90
2021/06/08 06:40:10;;;;;;;2.87;2.67;;;25.20;76.30;;;;;;5114290;28;20531;-90
2021/06/08 06:42:41;;;;;;;3.40;3.20;;;25.20;76.40;;;;;;5114105;28;20791;-90
2021/06/08 06:45:14;;;;;;;3.37;2.73;;;25.40;76.50;;;;;;5115112;28;20440;-91
2021/06/08 06:47:41;;;;;;;3.40;3.13;;;25.30;76.30;;;;;;5114251;28;20441;-91
2021/06/08 06:50:10;;;;;;;3.30;3.10;;;25.30;76.20;;;;;;5117442;28;20459;-92
2021/06/08 06:52:38;;;;;;;3.20;3.00;;;25.30;76.10;;;;;;5117928;28;20448;-91
2021/06/08 06:55:05;;;;;;;3.13;2.83;;;25.30;76.10;;;;;;5117770;28;20475;-91
2021/06/08 06:57:33;;;;;;;3.33;3.13;;;25.20;76.00;;;;;;5118100;28;20451;-90
2021/06/08 06:59:59;;;;;;;3.00;2.80;;;25.30;76.00;;;;;;5118874;28;20439;-86
2021/06/08 07:02:27;;;;;;;4.80;2.80;;;25.30;76.00;;;;;;5119667;28;20590;-91
2021/06/08 07:04:54;;;;;;;2.53;2.33;;;25.30;75.90;;;;;;5117976;28;20448;-90
2021/06/08 07:07:21;;;;;;;3.20;3.00;;;25.20;75.80;;;;;;5117588;28;20439;-91
2021/06/08 07:09:48;;;;;;;3.87;3.57;;;25.30;75.90;;;;;;5117822;28;20500;-88
2021/06/08 07:12:17;;;;;;;3.10;2.90;;;25.30;75.80;;;;;;5117599;28;20474;-91
2021/06/08 07:14:45;;;;;;;3.10;2.90;;;25.30;75.80;;;;;;5123568;27;20513;-85
2021/06/08 07:17:12;;;;;;;3.67;3.47;;;25.30;76.00;;;;;;5198524;22;21099;-91
2021/06/08 07:19:41;;;;;;;3.03;2.83;;;25.30;76.90;;;;;;5096690;28;20452;-87
2021/06/08 07:22:09;;;;;;;4.27;3.03;;;25.30;76.00;;;;;;5096574;28;20481;-87
2021/06/08 07:24:41;;;;;;;3.37;2.73;;;25.30;76.00;;;;;;5096911;28;20434;-87
2021/06/08 07:27:11;;;;;;;3.17;2.97;;;25.30;76.00;;;;;;5096801;28;20807;-86
2021/06/08 07:29:37;;;;;;;3.40;3.20;;;25.30;75.80;;;;;;5096794;28;20447;-86
2021/06/08 07:32:06;;;;;;;3.33;3.13;;;25.30;75.70;;;;;;5096529;28;20441;-87
2021/06/08 07:34:36;;;;;;;2.97;2.80;;;25.30;75.60;;;;;;5096400;28;20465;-88
2021/06/08 07:37:07;;;;;;;3.40;3.20;;;25.30;75.60;;;;;;5096499;28;20430;-87
2021/06/08 07:39:40;;;;;;;3.67;3.47;;;25.30;75.70;;;;;;5096738;28;20947;-87
2021/06/08 07:42:11;;;;;;;3.50;3.00;;;25.40;75.70;;;;;;5096479;28;20782;-89
2021/06/08 07:44:45;;;;;;;3.60;2.50;;;25.30;75.70;;;;;;5096673;28;20440;-90
2021/06/08 07:47:15;;;;;;;2.53;2.40;;;25.30;75.70;;;;;;5096226;28;20520;-86
2021/06/08 07:49:44;;;;;;;2.70;2.50;;;25.40;75.90;;;;;;5096501;28;20453;-86
2021/06/08 07:52:15;;;;;;;2.93;2.30;;;25.30;75.90;;;;;;5096233;28;20799;-89
2021/06/08 07:54:43;;;;;;;3.20;2.90;;;25.40;75.90;;;;;;5092350;28;20443;-89
2021/06/08 07:57:10;;;;;;;6.67;2.73;;;25.40;76.00;;;;;;5081540;28;20443;-87
2021/06/08 07:59:36;;;;;;;3.10;2.73;;;25.40;76.00;;;;;;5087956;28;20442;-87
2021/06/08 08:02:04;;;;;;;3.40;2.40;;;25.40;76.00;;;;;;5079858;28;20450;-86
2021/06/08 08:04:36;;;;;;;3.83;2.33;;;25.40;76.00;;;;;;5083877;28;20449;-86
2021/06/08 08:07:03;;;;;;;2.97;2.70;;;25.40;76.00;;;;;;5086392;28;20584;-87
2021/06/08 08:09:32;;;;;;;3.60;2.63;;;25.20;75.80;;;;;;5090092;28;20443;-88
2021/06/08 08:11:59;;;;;;;3.30;2.80;;;25.40;76.00;;;;;;5089916;28;20466;-86
2021/06/08 08:14:26;;;;;;;2.97;2.67;;;25.40;76.00;;;;;;5083837;28;20440;-86
2021/06/08 08:16:55;;;;;;;2.83;2.20;;;25.40;76.00;;;;;;5084447;28;20533;-87
2021/06/08 08:19:23;;;;;;;2.83;2.63;;;25.40;76.10;;;;;;5080521;28;20445;-87
2021/06/08 08:21:50;;;;;;;2.40;2.20;;;25.40;76.10;;;;;;5083486;28;20445;-86
2021/06/08 08:24:17;;;;;;;3.43;2.77;;;25.40;76.00;;;;;;5086730;28;20440;-86
2021/06/08 08:26:45;;;;;;;2.70;2.43;;;25.40;76.00;;;;;;5088224;28;20495;-87
2021/06/08 08:29:12;;;;;;;2.43;2.23;;;25.40;76.10;;;;;;5080005;28;20479;-87
2021/06/08 08:31:38;;;;;;;2.70;2.50;;;25.40;76.10;;;;;;5082011;28;20436;-87
2021/06/08 08:34:05;;;;;;;4.27;2.70;;;25.40;76.10;;;;;;5085862;28;20972;-86
2021/06/08 08:36:38;;;;;;;3.97;2.73;;;25.40;76.10;;;;;;5083160;28;20480;-87
2021/06/08 08:39:06;;;;;;;2.70;2.50;;;25.40;76.00;;;;;;5083719;28;20438;-89
2021/06/08 08:41:32;;;;;;;3.23;2.93;;;25.40;76.10;;;;;;5095034;28;20447;-88
2021/06/08 08:44:00;;;;;;;2.83;2.60;;;25.40;76.10;;;;;;5092140;28;20531;-88
2021/06/08 08:46:30;;;;;;;2.57;2.37;;;25.40;76.10;;;;;;5086030;28;20426;-89
2021/06/08 08:48:57;;;;;;;2.53;2.33;;;25.40;76.10;;;;;;5087532;28;20465;-88
2021/06/08 08:51:28;;;;;;;3.70;2.40;;;25.40;76.00;;;;;;5085453;28;20469;-89
2021/06/08 08:53:57;;;;;;;2.30;2.17;;;25.40;76.10;;;;;;5082378;28;20524;-87
2021/06/08 08:56:29;;;;;;;2.50;2.30;;;25.40;76.10;;;;;;5087989;28;20618;-89
2021/06/08 08:58:56;;;;;;;4.17;3.23;;;25.40;76.00;;;;;;5081454;28;20538;-89
2021/06/08 09:01:24;;;;;;;2.30;2.10;;;25.40;76.00;;;;;;5087593;28;20521;-89
2021/06/08 09:03:51;;;;;;;2.60;2.40;;;25.40;76.10;;;;;;5089541;28;20567;-88
2021/06/08 09:06:21;;;;;;;2.90;2.20;;;25.40;76.10;;;;;;5091731;28;20441;-86
2021/06/08 09:08:48;;;;;;;2.47;2.27;;;25.40;76.00;;;;;;5088200;28;20425;-87
2021/06/08 09:11:14;;;;;;;2.50;2.30;;;25.40;76.00;;;;;;5080798;28;20436;-86
2021/06/08 09:13:41;;;;;;;3.20;2.47;;;25.40;76.10;;;;;;5085976;28;20918;-88
2021/06/08 09:16:09;;;;;;;2.13;2.03;;;25.40;76.10;;;;;;5085799;28;20974;-89
2021/06/08 09:18:37;;;;;;;2.80;2.10;;;25.40;75.90;;;;;;5090224;28;20502;-89
2021/06/08 09:21:17;;;;;;;2.87;2.00;;;25.40;76.00;;;;;;5079821;28;20550;-89
2021/06/08 09:23:43;;;;;;;2.93;2.73;;;25.40;75.90;;;;;;5094554;28;20441;-88
2021/06/08 09:26:10;;;;;;;2.37;2.17;;;25.40;75.60;;;;;;5094781;28;20520;-90
2021/06/08 09:28:37;;;;;;;5.13;2.53;;;25.40;75.60;;;;;;5094891;28;20954;-90
2021/06/08 09:31:08;;;;;;;2.97;2.77;;;25.40;75.50;;;;;;5094768;28;20520;-91
2021/06/08 09:33:38;;;;;;;4.30;2.87;;;25.40;75.50;;;;;;5094827;28;20434;-85
2021/06/08 09:36:07;;;;;;;3.10;2.00;;;25.40;75.40;;;;;;5094903;28;20598;-89
2021/06/08 09:38:39;;;;;;;2.87;2.50;;;25.40;75.30;;;;;;5096333;28;20443;-91
2021/06/08 09:41:23;;;;;;;3.97;2.87;;;25.40;75.60;;;;;;5099902;28;20537;-87
2021/06/08 09:43:59;;;;;;;3.13;2.83;;;25.40;75.60;;;;;;5077281;28;20440;-88
2021/06/08 09:46:29;;;;;;;4.33;2.93;;;25.40;75.80;;;;;;5094162;28;20436;-90
2021/06/08 09:48:59;;;;;;;4.17;2.80;;;25.40;75.70;;;;;;5094063;28;20438;-90
2021/06/08 09:51:26;;;;;;;3.37;1.97;;;25.40;75.70;;;;;;5093922;28;20458;-89
2021/06/08 09:53:53;;;;;;;3.40;2.00;;;25.40;75.70;;;;;;5093076;28;20445;-85
2021/06/08 09:56:21;;;;;;;2.77;2.40;;;25.40;75.70;;;;;;5084451;28;20961;-85
2021/06/08 09:58:49;;;;;;;3.53;2.60;;;25.40;75.80;;;;;;5084260;28;20445;-85
2021/06/08 10:01:21;;;;;;;3.47;2.70;;;25.40;75.90;;;;;;5083858;28;20443;-84
2021/06/08 10:03:52;;;;;;;3.03;2.70;;;25.40;76.00;;;;;;5081752;28;20442;-85
2021/06/08 10:06:22;;;;;;;2.90;2.70;;;25.40;76.20;;;;;;5083870;28;20504;-85
2021/06/08 10:08:57;;;;;;;4.80;3.17;;;25.40;76.20;;;;;;5087100;28;20840;-88
2021/06/08 10:11:25;;;;;;;5.87;2.50;;;25.40;76.60;;;;;;5103272;28;20426;-87
2021/06/08 10:13:58;;;;;;;2.97;2.70;;;25.40;76.90;;;;;;5097650;28;20900;-88
2021/06/08 10:16:28;;;;;;;2.70;2.50;;;25.40;77.50;;;;;;5096030;28;20485;-88
2021/06/08 10:18:55;;;;;;;4.57;2.70;;;25.40;77.80;;;;;;5086306;28;20481;-85
2021/06/08 10:21:36;;;;;;;3.00;2.67;;;25.40;77.90;;;;;;5091862;28;20465;-87
2021/06/08 10:24:05;;;;;;;3.00;2.60;;;25.40;77.80;;;;;;5094942;28;20480;-88
2021/06/08 10:26:34;;;;;;;7.67;2.97;;;25.40;77.80;;;;;;5097941;28;20441;-87
2021/06/08 10:29:04;;;;;;;2.57;2.37;;;25.40;77.80;;;;;;5097618;28;21004;-88
2021/06/08 10:31:31;;;;;;;5.67;2.70;;;25.40;77.70;;;;;;5097376;28;20441;-87
2021/06/08 10:33:58;;;;;;;2.93;2.63;;;25.40;77.60;;;;;;5097583;28;20468;-87
2021/06/08 10:36:25;;;;;;;2.80;2.60;;;25.50;77.70;;;;;;5097242;28;20489;-86
2021/06/08 10:38:53;;;;;;;3.60;2.37;;;25.50;77.60;;;;;;5098158;28;20468;-87
2021/06/08 10:41:20;;;;;;;2.80;2.60;;;25.50;77.60;;;;;;5102156;28;20494;-87
2021/06/08 10:43:46;;;;;;;3.40;3.10;;;25.50;77.60;;;;;;5097287;28;20444;-88
2021/06/08 10:46:25;;;;;;;3.43;3.13;;;25.50;77.60;;;;;;5097340;28;20544;-87
2021/06/08 10:48:52;;;;;;;4.13;2.97;;;25.50;77.40;;;;;;5096894;28;20506;-87
2021/06/08 10:51:21;;;;;;;3.20;3.00;;;25.50;77.40;;;;;;5096688;28;20472;-88
2021/06/08 10:53:50;;;;;;;3.63;3.33;;;25.50;77.40;;;;;;5097999;28;20456;-90
2021/06/08 10:56:22;;;;;;;3.03;2.83;;;25.50;77.10;;;;;;5097609;28;20513;-89
2021/06/08 10:58:51;;;;;;;13.13;3.40;;;25.50;77.00;;;;;;5097274;28;20536;-88
2021/06/08 11:01:47;;;;;;;2.90;2.70;;;25.50;77.00;;;;;;5097457;28;20437;-88
2021/06/08 11:04:23;;;;;;;3.80;3.03;;;25.50;77.10;;;;;;5089189;28;20449;-88
2021/06/08 11:06:57;;;;;;;3.30;3.00;;;25.50;77.20;;;;;;5096893;28;20440;-88
2021/06/08 11:09:35;;;;;;;3.23;2.93;;;25.50;78.00;;;;;;5096819;28;20442;-89
2021/06/08 11:12:21;;;;;;;3.57;3.27;;;25.50;78.00;;;;;;5096439;28;20527;-88
2021/06/08 11:14:59;;;;;;;4.10;3.13;;;25.50;77.10;;;;;;5094451;28;20437;-88
2021/06/08 11:17:40;;;;;;;3.67;3.47;;;25.50;77.10;;;;;;5096430;28;20474;-88
2021/06/08 11:20:26;;;;;;;3.90;3.50;;;25.50;77.00;;;;;;5096664;28;20461;-88
2021/06/08 11:23:11;;;;;;;4.17;3.77;;;25.50;76.90;;;;;;5096415;28;20485;-88
2021/06/08 11:25:44;;;;;;;4.57;3.37;;;25.50;76.60;;;;;;5096684;28;20485;-88
2021/06/08 11:28:14;;;;;;;4.40;4.10;;;25.50;76.50;;;;;;5096556;28;20441;-88
2021/06/08 11:30:42;;;;;;;4.87;3.97;;;25.50;76.30;;;;;;5096399;28;20538;-88
2021/06/08 11:33:27;;;;;;;5.00;4.50;;;25.50;76.20;;;;;;5096446;28;20443;-88
2021/06/08 11:35:54;;;;;;;4.30;4.00;;;25.50;76.00;;;;;;5095261;28;20546;-88
2021/06/08 11:38:29;;;;;;;4.73;4.23;;;25.50;76.00;;;;;;5096055;28;20924;-88
2021/06/08 11:41:08;;;;;;;3.40;3.20;;;25.50;76.00;;;;;;5096174;28;20434;-88
2021/06/08 11:43:56;;;;;;;4.17;3.80;;;25.50;75.80;;;;;;5096172;28;20495;-88
2021/06/08 11:46:58;;;;;;;3.77;3.47;;;25.50;75.90;;;;;;5096132;28;20446;-88
2021/06/08 11:49:25;;;;;;;4.50;3.60;;;25.60;75.70;;;;;;5079337;28;21040;-87
2021/06/08 11:52:09;;;;;;;3.43;3.23;;;25.50;75.60;;;;;;5096208;28;20817;-87
2021/06/08 11:54:49;;;;;;;3.60;3.40;;;25.60;75.60;;;;;;5095947;28;20527;-89
2021/06/08 11:57:34;;;;;;;3.83;3.37;;;25.60;75.60;;;;;;5096159;28;20478;-89
2021/06/08 12:00:03;;;;;;;3.90;3.60;;;25.50;75.40;;;;;;5096124;28;20448;-88
2021/06/08 12:02:34;;;;;;;3.73;3.43;;;25.50;75.50;;;;;;5095807;28;20457;-88
2021/06/08 12:05:13;;;;;;;4.07;3.53;;;25.60;76.40;;;;;;5096137;28;20539;-87
2021/06/08 12:07:45;;;;;;;3.30;3.10;;;25.60;75.60;;;;;;5099198;28;20439;-86
2021/06/08 12:10:13;;;;;;;4.70;3.50;;;25.50;75.70;;;;;;5095772;28;20893;-89
2021/06/08 12:12:44;;;;;;;4.13;3.53;;;25.50;75.70;;;;;;5095667;28;20843;-88
2021/06/08 12:15:19;;;;;;;3.67;3.30;;;25.50;75.80;;;;;;5095682;28;20442;-87
2021/06/08 12:17:58;;;;;;;4.00;3.50;;;25.50;75.90;;;;;;5095252;28;20560;-89
2021/06/08 12:20:25;;;;;;;8.97;3.80;;;25.50;75.80;;;;;;5095002;28;20484;-87
2021/06/08 12:22:51;;;;;;;4.37;3.57;;;25.50;76.00;;;;;;5095182;28;20448;-86
2021/06/08 12:25:17;;;;;;;4.40;3.60;;;25.60;76.10;;;;;;5095293;28;20447;-89
2021/06/08 12:27:45;;;;;;;3.93;3.63;;;25.50;76.00;;;;;;5095361;28;20449;-88
2021/06/08 12:30:16;;;;;;;3.87;3.40;;;25.50;76.00;;;;;;5095311;28;20475;-88
2021/06/08 12:32:43;;;;;;;4.40;3.87;;;25.50;76.00;;;;;;5095290;28;20514;-85
2021/06/08 12:35:22;;;;;;;3.77;3.47;;;25.50;76.10;;;;;;5095017;28;20444;-87
2021/06/08 12:37:51;;;;;;;3.37;3.17;;;25.50;76.00;;;;;;5095136;28;20453;-88
2021/06/08 12:40:20;;;;;;;3.50;3.20;;;25.50;76.00;;;;;;5094837;28;20430;-88
2021/06/08 12:42:47;;;;;;;7.00;3.30;;;25.50;76.00;;;;;;5094950;28;20452;-88
2021/06/08 12:45:21;;;;;;;3.90;3.60;;;25.50;76.10;;;;;;5094937;28;20434;-88
2021/06/08 12:47:47;;;;;;;4.00;3.27;;;25.50;76.00;;;;;;5094556;28;20445;-88
2021/06/08 12:50:20;;;;;;;7.13;3.93;;;25.50;76.10;;;;;;5094354;28;20519;-89
2021/06/08 12:52:57;;;;;;;3.60;3.20;;;25.50;76.00;;;;;;5094853;28;20475;-83
2021/06/08 12:55:28;;;;;;;4.00;3.70;;;25.50;75.90;;;;;;5094811;28;20481;-85
2021/06/08 12:57:58;;;;;;;6.00;4.10;;;25.50;75.90;;;;;;5094964;28;20795;-89
2021/06/08 13:00:28;;;;;;;3.60;3.30;;;25.50;75.90;;;;;;5094637;28;20930;-85